Terminal Aerodrome Forecast
Issued by NWS

Home | Current Version | Previous Version | Graphics & Text | Print | Product List | Glossary On
Versions: 1 2 3 4 5 6 7 8 9 10 11 12 13 14 15 16 17 18
000
FTUS43 KMPX 281100
TAFAXN
TAF
KAXN 281130Z 2812/2912 33009KT P6SM OVC060
     FM282100 33010KT P6SM SCT040 BKN100
     FM290100 32004KT P6SM SKC=

USA.gov is the U.S. government's official web portal to all federal, state and local government web resources and services.